Time;durP1;ratioP1;P1;durP2;ratioP2;P2;SDS_P1;SDS_P2;PMS_P1;PMS_P2;Temp;Humidity;BMP_temperature;BMP_pressure;BME280_temperature;BME280_humidity;BME280_pressure;Samples;Min_cycle;Max_cycle;Signal;HPM_P1;HPM_P2
2023/10/24 05:21:49;;;;;;;;;;;;;;;;;;4971984;28;19929;-40
2023/10/24 05:24:14;;;;;;;;;;;;;;;;;;4972160;28;20310;-40
2023/10/24 05:26:40;;;;;;;;;;;;;;;;;;4978439;28;19919;-41
2023/10/24 05:29:06;;;;;;;;;;;;;;;;;;4985083;28;19914;-40
2023/10/24 05:31:32;;;;;;;;;;;;;;;;;;4975049;28;19941;-41
2023/10/24 05:33:58;;;;;;;;;;;;;;;;;;4974196;28;19921;-41
2023/10/24 05:36:24;;;;;;;;;;;;;;;;;;4972044;28;20004;-41
2023/10/24 05:38:50;;;;;;;;;;;;;;;;;;4972038;28;19917;-41
2023/10/24 05:41:16;;;;;;;;;;;;;;;;;;4973753;28;19941;-40
2023/10/24 05:43:41;;;;;;;;;;;;;;;;;;4973300;28;19941;-40
2023/10/24 05:46:07;;;;;;;;;;;;;;;;;;4971911;28;20397;-42
2023/10/24 05:48:35;;;;;;;;;;;;;;;;;;4971674;28;19921;-42
2023/10/24 05:51:01;;;;;;;;;;;;;;;;;;4973307;28;19946;-41
2023/10/24 05:53:27;;;;;;;;;;;;;;;;;;4991262;28;19979;-41
2023/10/24 05:55:53;;;;;;;;;;;;;;;;;;4991506;28;19936;-42
2023/10/24 05:58:19;;;;;;;;;;;;;;;;;;4981408;28;19914;-42
2023/10/24 06:00:45;;;;;;;;;;;;;;;;;;4969574;28;20609;-41
2023/10/24 06:03:11;;;;;;;;;;;;;;;;;;4973879;28;19917;-41
2023/10/24 06:05:37;;;;;;;;;;;;;;;;;;4971513;28;19992;-40
2023/10/24 06:08:03;;;;;;;;;;;;;;;;;;4982288;28;19992;-40
2023/10/24 06:10:29;;;;;;;;;;;;;;;;;;4978970;28;19996;-41
2023/10/24 06:12:55;;;;;;;;;;;;;;;;;;4972703;28;20351;-41
2023/10/24 06:15:21;;;;;;;;;;;;;;;;;;4951005;29;19969;-41
2023/10/24 06:17:47;;;;;;;;;;;;;;;;;;4951110;29;19942;-41
2023/10/24 06:20:12;;;;;;;;;;;;;;;;;;4951208;29;19974;-40
2023/10/24 06:22:40;;;;;;;;;;;;;;;;;;4951029;29;20411;-40
2023/10/24 06:25:06;;;;;;;;;;;;;;;;;;4951031;29;19917;-40
2023/10/24 06:27:31;;;;;;;;;;;;;;;;;;4951182;29;19906;-40
2023/10/24 06:29:57;;;;;;;;;;;;;;;;;;4951098;29;19914;-41
2023/10/24 06:32:23;;;;;;;;;;;;;;;;;;4951047;29;19914;-41
2023/10/24 06:34:49;;;;;;;;;;;;;;;;;;4951334;29;19922;-41
2023/10/24 06:37:15;;;;;;;;;;;;;;;;;;4950920;29;20097;-41
2023/10/24 06:39:41;;;;;;;;;;;;;;;;;;4951029;28;19941;-41
2023/10/24 06:42:07;;;;;;;;;;;;;;;;;;4954766;29;20379;-41
2023/10/24 06:44:33;;;;;;;;;;;;;;;;;;4954994;29;19936;-41
2023/10/24 06:46:58;;;;;;;;;;;;;;;;;;4954823;29;19917;-41
2023/10/24 06:49:24;;;;;;;;;;;;;;;;;;4954626;29;19917;-41
2023/10/24 06:51:50;;;;;;;;;;;;;;;;;;4955068;29;19993;-41
2023/10/24 06:54:16;;;;;;;;;;;;;;;;;;4954499;29;19911;-41
2023/10/24 06:56:42;;;;;;;;;;;;;;;;;;4954550;29;19950;-40
2023/10/24 06:59:08;;;;;;;;;;;;;;;;;;4954249;29;19946;-40
2023/10/24 07:01:34;;;;;;;;;;;;;;;;;;4954865;29;19910;-40
2023/10/24 07:04:00;;;;;;;;;;;;;;;;;;4954677;29;20267;-42
2023/10/24 07:06:26;;;;;;;;;;;;;;;;;;4954890;29;20001;-41
2023/10/24 07:08:52;;;;;;;;;;;;;;;;;;4954180;29;19949;-40
2023/10/24 07:11:18;;;;;;;;;;;;;;;;;;4954432;29;19914;-40
2023/10/24 07:13:44;;;;;;;;;;;;;;;;;;4954130;29;19910;-41
2023/10/24 07:16:10;;;;;;;;;;;;;;;;;;4954369;29;19914;-40
2023/10/24 07:18:36;;;;;;;;;;;;;;;;;;4954303;29;19934;-41
2023/10/24 07:21:02;;;;;;;;;;;;;;;;;;4962028;28;20310;-40
2023/10/24 07:23:27;;;;;;;;;;;;;;;;;;4971864;28;19926;-41
2023/10/24 07:25:53;;;;;;;;;;;;;;;;;;4971464;28;19910;-41
2023/10/24 07:28:19;;;;;;;;;;;;;;;;;;4971435;28;19914;-41
2023/10/24 07:30:46;;;;;;;;;;;;;;;;;;4971637;28;19993;-41
2023/10/24 07:33:13;;;;;;;;;;;;;;;;;;4972223;28;19921;-41
2023/10/24 07:35:40;;;;;;;;;;;;;;;;;;4971767;28;19977;-41
2023/10/24 07:38:06;;;;;;;;;;;;;;;;;;4971211;28;20527;-41
2023/10/24 07:40:32;;;;;;;;;;;;;;;;;;4971149;28;20009;-41
2023/10/24 07:42:58;;;;;;;;;;;;;;;;;;4971327;28;19911;-41
2023/10/24 07:45:24;;;;;;;;;;;;;;;;;;4971285;28;19993;-41
2023/10/24 07:47:50;;;;;;;;;;;;;;;;;;4971268;28;20013;-41
2023/10/24 07:50:16;;;;;;;;;;;;;;;;;;4971655;28;19917;-41
2023/10/24 07:52:41;;;;;;;;;;;;;;;;;;4970828;28;19921;-41
2023/10/24 07:55:07;;;;;;;;;;;;;;;;;;4971248;28;19972;-42
2023/10/24 07:57:33;;;;;;;;;;;;;;;;;;4971029;28;20029;-41
2023/10/24 07:59:59;;;;;;;;;;;;;;;;;;4971043;28;19915;-42
2023/10/24 08:02:25;;;;;;;;;;;;;;;;;;4971113;28;20299;-41
2023/10/24 08:04:51;;;;;;;;;;;;;;;;;;4970961;28;19911;-41
2023/10/24 08:07:17;;;;;;;;;;;;;;;;;;4970989;28;20354;-42
2023/10/24 08:09:43;;;;;;;;;;;;;;;;;;4971401;28;19910;-41
2023/10/24 08:12:10;;;;;;;;;;;;;;;;;;4970788;28;19918;-42
2023/10/24 08:14:36;;;;;;;;;;;;;;;;;;4970793;28;20366;-41
2023/10/24 08:17:03;;;;;;;;;;;;;;;;;;4970842;28;19910;-41
2023/10/24 08:19:29;;;;;;;;;;;;;;;;;;4970562;28;20449;-41
2023/10/24 08:21:55;;;;;;;;;;;;;;;;;;4970582;28;19918;-41
2023/10/24 08:24:21;;;;;;;;;;;;;;;;;;4970644;28;19910;-41
2023/10/24 08:26:47;;;;;;;;;;;;;;;;;;4970647;28;19910;-41
2023/10/24 08:29:13;;;;;;;;;;;;;;;;;;4985824;28;19910;-41
2023/10/24 08:31:39;;;;;;;;;;;;;;;;;;4970618;28;19925;-41
2023/10/24 08:34:05;;;;;;;;;;;;;;;;;;4970567;28;20458;-41
2023/10/24 08:36:31;;;;;;;;;;;;;;;;;;4970538;28;19910;-42
2023/10/24 08:38:58;;;;;;;;;;;;;;;;;;4970078;28;20386;-41
2023/10/24 08:41:24;;;;;;;;;;;;;;;;;;4970073;28;19910;-42
2023/10/24 08:43:50;;;;;;;;;;;;;;;;;;4970690;28;19965;-42
2023/10/24 08:46:16;;;;;;;;;;;;;;;;;;4970829;28;20458;-41
2023/10/24 08:48:42;;;;;;;;;;;;;;;;;;4970281;28;19910;-41
2023/10/24 08:51:07;;;;;;;;;;;;;;;;;;4969771;28;20012;-41
2023/10/24 08:53:33;;;;;;;;;;;;;;;;;;4970447;28;19969;-41
2023/10/24 08:55:59;;;;;;;;;;;;;;;;;;4969671;28;19940;-41
2023/10/24 08:58:25;;;;;;;;;;;;;;;;;;4970183;28;19964;-41
2023/10/24 09:00:51;;;;;;;;;;;;;;;;;;4969817;28;19910;-41
2023/10/24 09:03:17;;;;;;;;;;;;;;;;;;4970457;28;19910;-41
2023/10/24 09:05:44;;;;;;;;;;;;;;;;;;4970563;28;20048;-41
2023/10/24 09:08:10;;;;;;;;;;;;;;;;;;4969868;28;20357;-41
2023/10/24 09:10:36;;;;;;;;;;;;;;;;;;4969590;28;20016;-41
2023/10/24 09:13:02;;;;;;;;;;;;;;;;;;4969970;28;19920;-41
2023/10/24 09:15:30;;;;;;;;;;;;;;;;;;4969618;28;20310;-41
2023/10/24 09:17:56;;;;;;;;;;;;;;;;;;4976498;28;20305;-41
2023/10/24 09:20:22;;;;;;;;;;;;;;;;;;4989294;28;19917;-41
2023/10/24 09:22:48;;;;;;;;;;;;;;;;;;4981524;28;20450;-42
2023/10/24 09:25:14;;;;;;;;;;;;;;;;;;4968223;28;19916;-42
2023/10/24 09:27:40;;;;;;;;;;;;;;;;;;4969324;28;19921;-43
2023/10/24 09:30:05;;;;;;;;;;;;;;;;;;4969563;28;20414;-42
2023/10/24 09:32:31;;;;;;;;;;;;;;;;;;4969244;28;19915;-42
2023/10/24 09:34:57;;;;;;;;;;;;;;;;;;4969843;28;19910;-42
2023/10/24 09:37:23;;;;;;;;;;;;;;;;;;4969890;28;20001;-43
2023/10/24 09:39:49;;;;;;;;;;;;;;;;;;4969503;28;19918;-43
2023/10/24 09:42:15;;;;;;;;;;;;;;;;;;4969210;28;19942;-42
2023/10/24 09:44:41;;;;;;;;;;;;;;;;;;4969457;28;19960;-42
2023/10/24 09:47:07;;;;;;;;;;;;;;;;;;4969033;28;19916;-42
2023/10/24 09:49:33;;;;;;;;;;;;;;;;;;4968905;28;19964;-42
2023/10/24 09:51:59;;;;;;;;;;;;;;;;;;4967929;28;20196;-42
2023/10/24 09:54:25;;;;;;;;;;;;;;;;;;4969843;28;19933;-41
2023/10/24 09:56:50;;;;;;;;;;;;;;;;;;4968883;28;19964;-42
2023/10/24 09:59:16;;;;;;;;;;;;;;;;;;4968822;28;20386;-42
2023/10/24 10:01:42;;;;;;;;;;;;;;;;;;4968793;28;19917;-42
2023/10/24 10:04:08;;;;;;;;;;;;;;;;;;4968983;28;20446;-42
2023/10/24 10:06:34;;;;;;;;;;;;;;;;;;4969219;28;19917;-42
2023/10/24 10:09:00;;;;;;;;;;;;;;;;;;4968907;28;19964;-42
2023/10/24 10:11:26;;;;;;;;;;;;;;;;;;4969367;28;19914;-43
2023/10/24 10:13:52;;;;;;;;;;;;;;;;;;4968888;28;19910;-42
2023/10/24 10:16:18;;;;;;;;;;;;;;;;;;4968199;28;19917;-42
2023/10/24 10:18:44;;;;;;;;;;;;;;;;;;4968747;28;19914;-43
2023/10/24 10:21:10;;;;;;;;;;;;;;;;;;4968839;28;19914;-41
2023/10/24 10:23:36;;;;;;;;;;;;;;;;;;4968436;28;20368;-41
2023/10/24 10:26:02;;;;;;;;;;;;;;;;;;4968579;28;19964;-42
2023/10/24 10:28:28;;;;;;;;;;;;;;;;;;4969582;28;19918;-43
2023/10/24 10:30:54;;;;;;;;;;;;;;;;;;4968813;28;19910;-42
2023/10/24 10:33:19;;;;;;;;;;;;;;;;;;4968292;28;19922;-43
2023/10/24 10:35:45;;;;;;;;;;;;;;;;;;4968644;28;19945;-42
2023/10/24 10:38:11;;;;;;;;;;;;;;;;;;4968120;28;19906;-43
2023/10/24 10:40:37;;;;;;;;;;;;;;;;;;4968817;28;19910;-42
2023/10/24 10:43:03;;;;;;;;;;;;;;;;;;4968322;28;19906;-42
2023/10/24 10:45:29;;;;;;;;;;;;;;;;;;4969773;28;20390;-42
2023/10/24 10:47:55;;;;;;;;;;;;;;;;;;4968229;28;19906;-42
2023/10/24 10:50:21;;;;;;;;;;;;;;;;;;4968609;28;20561;-42
2023/10/24 10:52:47;;;;;;;;;;;;;;;;;;4968541;28;19921;-43
2023/10/24 10:55:13;;;;;;;;;;;;;;;;;;4968657;28;19910;-43
2023/10/24 10:57:39;;;;;;;;;;;;;;;;;;4968194;28;20432;-42
2023/10/24 11:00:06;;;;;;;;;;;;;;;;;;4968421;28;19957;-42
2023/10/24 11:02:32;;;;;;;;;;;;;;;;;;4968324;28;20017;-42
2023/10/24 11:04:58;;;;;;;;;;;;;;;;;;4968945;28;20466;-42
2023/10/24 11:07:24;;;;;;;;;;;;;;;;;;4968334;28;19956;-42
2023/10/24 11:09:50;;;;;;;;;;;;;;;;;;4968518;28;19917;-42
2023/10/24 11:12:16;;;;;;;;;;;;;;;;;;4968126;28;20029;-43
2023/10/24 11:14:41;;;;;;;;;;;;;;;;;;4968418;28;19910;-41
2023/10/24 11:17:07;;;;;;;;;;;;;;;;;;4976483;28;20394;-42
2023/10/24 11:19:33;;;;;;;;;;;;;;;;;;4987932;28;19910;-43
2023/10/24 11:21:59;;;;;;;;;;;;;;;;;;4978749;28;20628;-42
2023/10/24 11:24:25;;;;;;;;;;;;;;;;;;4969401;28;19922;-41
2023/10/24 11:26:51;;;;;;;;;;;;;;;;;;4971187;28;19914;-42
2023/10/24 11:29:17;;;;;;;;;;;;;;;;;;4980582;28;20017;-42
2023/10/24 11:31:46;;;;;;;;;;;;;;;;;;4976897;28;19914;-42
2023/10/24 11:34:12;;;;;;;;;;;;;;;;;;4978817;28;19914;-42
2023/10/24 11:36:38;;;;;;;;;;;;;;;;;;4971594;28;19936;-42
2023/10/24 11:39:04;;;;;;;;;;;;;;;;;;4984064;28;19914;-43
2023/10/24 11:41:30;;;;;;;;;;;;;;;;;;4984271;28;19961;-43
2023/10/24 11:43:55;;;;;;;;;;;;;;;;;;4976860;28;19937;-42
2023/10/24 11:46:21;;;;;;;;;;;;;;;;;;4972015;28;19949;-43
2023/10/24 11:48:47;;;;;;;;;;;;;;;;;;4991945;28;20004;-41
2023/10/24 11:51:13;;;;;;;;;;;;;;;;;;4973169;28;19914;-42
2023/10/24 11:53:39;;;;;;;;;;;;;;;;;;4975235;28;20442;-43
2023/10/24 11:56:05;;;;;;;;;;;;;;;;;;4971060;28;19914;-42
2023/10/24 11:58:31;;;;;;;;;;;;;;;;;;4988207;28;19920;-42
2023/10/24 12:00:58;;;;;;;;;;;;;;;;;;4974019;28;19961;-42
2023/10/24 12:03:24;;;;;;;;;;;;;;;;;;4972130;28;19910;-44
2023/10/24 12:05:50;;;;;;;;;;;;;;;;;;4971416;28;20422;-42
2023/10/24 12:08:16;;;;;;;;;;;;;;;;;;4971960;28;20000;-42
2023/10/24 12:10:42;;;;;;;;;;;;;;;;;;4969623;28;19914;-42
2023/10/24 12:13:08;;;;;;;;;;;;;;;;;;4970746;28;20414;-41
2023/10/24 12:15:34;;;;;;;;;;;;;;;;;;4975451;28;19921;-41
2023/10/24 12:17:59;;;;;;;;;;;;;;;;;;4984158;28;20004;-41
2023/10/24 12:20:25;;;;;;;;;;;;;;;;;;4973546;28;19985;-42
2023/10/24 12:22:51;;;;;;;;;;;;;;;;;;4986218;28;19929;-41
2023/10/24 12:25:17;;;;;;;;;;;;;;;;;;4972322;28;19914;-41
2023/10/24 12:27:44;;;;;;;;;;;;;;;;;;4976025;28;20387;-41
2023/10/24 12:30:09;;;;;;;;;;;;;;;;;;4979179;28;20008;-41
2023/10/24 12:32:36;;;;;;;;;;;;;;;;;;4972153;28;19981;-42
2023/10/24 12:35:02;;;;;;;;;;;;;;;;;;4985566;28;19916;-41
2023/10/24 12:37:28;;;;;;;;;;;;;;;;;;4974553;28;19914;-41
2023/10/24 12:39:54;;;;;;;;;;;;;;;;;;4971116;28;20369;-41
2023/10/24 12:42:20;;;;;;;;;;;;;;;;;;4972420;28;19910;-41
2023/10/24 12:44:45;;;;;;;;;;;;;;;;;;4971031;28;19918;-41
2023/10/24 12:47:11;;;;;;;;;;;;;;;;;;4976680;28;19914;-41
2023/10/24 12:49:37;;;;;;;;;;;;;;;;;;4970574;28;19920;-41
2023/10/24 12:52:03;;;;;;;;;;;;;;;;;;4974776;28;19941;-41
2023/10/24 12:54:29;;;;;;;;;;;;;;;;;;4969347;28;19945;-41
2023/10/24 12:56:55;;;;;;;;;;;;;;;;;;4968694;28;20385;-41
2023/10/24 12:59:21;;;;;;;;;;;;;;;;;;4970901;28;19918;-41
2023/10/24 13:01:47;;;;;;;;;;;;;;;;;;4970009;28;19921;-42
2023/10/24 13:04:13;;;;;;;;;;;;;;;;;;4970934;28;19918;-41
2023/10/24 13:06:39;;;;;;;;;;;;;;;;;;4970245;28;19918;-41
2023/10/24 13:09:07;;;;;;;;;;;;;;;;;;4970772;28;20311;-41
2023/10/24 13:11:33;;;;;;;;;;;;;;;;;;4969876;28;19914;-42
2023/10/24 13:13:59;;;;;;;;;;;;;;;;;;4980420;28;19972;-42
2023/10/24 13:16:24;;;;;;;;;;;;;;;;;;4966835;28;19929;-42
2023/10/24 13:18:50;;;;;;;;;;;;;;;;;;4966164;28;19921;-42
2023/10/24 13:21:16;;;;;;;;;;;;;;;;;;4978307;28;20052;-42
2023/10/24 13:23:42;;;;;;;;;;;;;;;;;;4969340;28;20497;-42
2023/10/24 13:26:08;;;;;;;;;;;;;;;;;;4969419;28;19914;-43
2023/10/24 13:28:34;;;;;;;;;;;;;;;;;;4965328;28;19918;-42
2023/10/24 13:31:00;;;;;;;;;;;;;;;;;;4968696;28;19921;-42
2023/10/24 13:33:26;;;;;;;;;;;;;;;;;;4970634;28;19926;-42
2023/10/24 13:35:52;;;;;;;;;;;;;;;;;;4951508;28;20418;-43
2023/10/24 13:38:20;;;;;;;;;;;;;;;;;;4970403;28;19914;-43
2023/10/24 13:40:45;;;;;;;;;;;;;;;;;;4970327;28;19914;-43
2023/10/24 13:43:11;;;;;;;;;;;;;;;;;;4970464;28;19910;-42
2023/10/24 13:45:37;;;;;;;;;;;;;;;;;;4969628;28;20275;-42
2023/10/24 13:48:03;;;;;;;;;;;;;;;;;;4982750;28;19960;-43
2023/10/24 13:50:29;;;;;;;;;;;;;;;;;;4987352;28;20445;-43
2023/10/24 13:52:55;;;;;;;;;;;;;;;;;;4987893;28;20013;-42
2023/10/24 13:55:21;;;;;;;;;;;;;;;;;;4988080;28;20264;-42
2023/10/24 13:57:47;;;;;;;;;;;;;;;;;;4988276;28;19910;-42
2023/10/24 14:00:13;;;;;;;;;;;;;;;;;;4988463;28;19957;-43
2023/10/24 14:02:38;;;;;;;;;;;;;;;;;;4988193;28;19909;-43
2023/10/24 14:05:05;;;;;;;;;;;;;;;;;;4988485;28;19933;-43
2023/10/24 14:07:31;;;;;;;;;;;;;;;;;;4973864;28;19915;-45
2023/10/24 14:09:57;;;;;;;;;;;;;;;;;;4969259;28;19969;-42
2023/10/24 14:12:23;;;;;;;;;;;;;;;;;;4968899;28;19994;-43
2023/10/24 14:14:49;;;;;;;;;;;;;;;;;;4968738;28;19914;-43
2023/10/24 14:17:15;;;;;;;;;;;;;;;;;;4968924;28;20001;-42
2023/10/24 14:19:40;;;;;;;;;;;;;;;;;;4968704;28;19917;-43
2023/10/24 14:22:06;;;;;;;;;;;;;;;;;;4968536;28;20060;-43
2023/10/24 14:24:32;;;;;;;;;;;;;;;;;;4969466;28;19911;-42
2023/10/24 14:26:59;;;;;;;;;;;;;;;;;;4969400;28;19917;-43
2023/10/24 14:29:25;;;;;;;;;;;;;;;;;;4968548;28;20494;-43
2023/10/24 14:31:51;;;;;;;;;;;;;;;;;;4968520;28;19922;-43
2023/10/24 14:34:17;;;;;;;;;;;;;;;;;;4968722;28;19910;-43
2023/10/24 14:36:43;;;;;;;;;;;;;;;;;;4968567;28;19914;-44
2023/10/24 14:39:09;;;;;;;;;;;;;;;;;;4968486;28;20454;-42
2023/10/24 14:41:35;;;;;;;;;;;;;;;;;;4968546;28;19917;-43
2023/10/24 14:44:01;;;;;;;;;;;;;;;;;;4968949;28;19910;-44
2023/10/24 14:46:27;;;;;;;;;;;;;;;;;;4968614;28;19965;-43
2023/10/24 14:48:53;;;;;;;;;;;;;;;;;;4968313;28;19917;-43
2023/10/24 14:51:19;;;;;;;;;;;;;;;;;;4968405;28;20009;-44
2023/10/24 14:53:45;;;;;;;;;;;;;;;;;;4968539;28;19942;-43
2023/10/24 14:56:11;;;;;;;;;;;;;;;;;;4968627;28;19934;-43
2023/10/24 14:58:37;;;;;;;;;;;;;;;;;;4968305;28;19960;-43
2023/10/24 15:01:03;;;;;;;;;;;;;;;;;;4969602;28;19910;-46
2023/10/24 15:03:28;;;;;;;;;;;;;;;;;;4971893;28;20342;-44
2023/10/24 15:05:54;;;;;;;;;;;;;;;;;;4972141;28;19976;-43
2023/10/24 15:08:20;;;;;;;;;;;;;;;;;;4971847;28;19906;-42
2023/10/24 15:10:46;;;;;;;;;;;;;;;;;;4971926;28;20021;-42
2023/10/24 15:13:12;;;;;;;;;;;;;;;;;;4971812;28;20000;-43
2023/10/24 15:15:40;;;;;;;;;;;;;;;;;;4984184;28;19914;-44
2023/10/24 15:18:06;;;;;;;;;;;;;;;;;;4989057;28;19949;-44
2023/10/24 15:20:32;;;;;;;;;;;;;;;;;;4979247;28;19946;-43
2023/10/24 15:22:58;;;;;;;;;;;;;;;;;;4973360;28;20314;-43
2023/10/24 15:25:24;;;;;;;;;;;;;;;;;;4971587;28;20083;-44
2023/10/24 15:27:50;;;;;;;;;;;;;;;;;;4971235;28;20013;-44
2023/10/24 15:30:17;;;;;;;;;;;;;;;;;;4970483;28;20399;-47
2023/10/24 15:32:42;;;;;;;;;;;;;;;;;;4971572;28;20307;-44
2023/10/24 15:35:08;;;;;;;;;;;;;;;;;;4971732;28;19974;-48
2023/10/24 15:37:34;;;;;;;;;;;;;;;;;;4971447;28;20009;-46
2023/10/24 15:40:00;;;;;;;;;;;;;;;;;;4972076;28;19910;-44
2023/10/24 15:42:26;;;;;;;;;;;;;;;;;;4971266;28;20268;-45
2023/10/24 15:44:52;;;;;;;;;;;;;;;;;;4971467;28;19952;-47
2023/10/24 15:47:18;;;;;;;;;;;;;;;;;;4971452;28;20367;-48
2023/10/24 15:49:43;;;;;;;;;;;;;;;;;;4971161;28;19910;-44
2023/10/24 15:52:09;;;;;;;;;;;;;;;;;;4971161;28;19969;-44
2023/10/24 15:54:37;;;;;;;;;;;;;;;;;;4970979;28;19949;-45
2023/10/24 15:57:03;;;;;;;;;;;;;;;;;;4971500;28;19969;-44
2023/10/24 15:59:29;;;;;;;;;;;;;;;;;;4971514;28;19914;-46
2023/10/24 16:01:57;;;;;;;;;;;;;;;;;;4970767;28;20284;-45
2023/10/24 16:04:23;;;;;;;;;;;;;;;;;;4970841;28;19946;-44
2023/10/24 16:06:49;;;;;;;;;;;;;;;;;;4971080;28;19920;-45
2023/10/24 16:09:15;;;;;;;;;;;;;;;;;;4970849;28;19907;-43
2023/10/24 16:11:41;;;;;;;;;;;;;;;;;;4970665;28;19910;-43
2023/10/24 16:14:07;;;;;;;;;;;;;;;;;;4969942;28;19911;-44
2023/10/24 16:16:33;;;;;;;;;;;;;;;;;;4970774;28;19910;-43
2023/10/24 16:19:00;;;;;;;;;;;;;;;;;;4971074;28;20005;-44
2023/10/24 16:21:26;;;;;;;;;;;;;;;;;;4970818;28;19910;-45
2023/10/24 16:23:52;;;;;;;;;;;;;;;;;;4970717;28;19910;-44
2023/10/24 16:26:18;;;;;;;;;;;;;;;;;;4970710;28;19910;-43
2023/10/24 16:28:44;;;;;;;;;;;;;;;;;;4970467;28;20283;-43
2023/10/24 16:31:10;;;;;;;;;;;;;;;;;;4970623;28;19914;-43
2023/10/24 16:33:36;;;;;;;;;;;;;;;;;;4970347;28;20005;-45
2023/10/24 16:36:03;;;;;;;;;;;;;;;;;;4971037;28;20000;-41
2023/10/24 16:38:31;;;;;;;;;;;;;;;;;;4971035;28;20394;-44
2023/10/24 16:40:57;;;;;;;;;;;;;;;;;;4970401;28;19996;-44
2023/10/24 16:43:23;;;;;;;;;;;;;;;;;;4970320;28;20004;-46
2023/10/24 16:45:52;;;;;;;;;;;;;;;;;;4970248;28;19921;-43
2023/10/24 16:48:20;;;;;;;;;;;;;;;;;;4970101;28;19910;-44
2023/10/24 16:50:46;;;;;;;;;;;;;;;;;;4970006;28;20391;-44
2023/10/24 16:53:12;;;;;;;;;;;;;;;;;;4969895;28;19987;-45
2023/10/24 16:55:37;;;;;;;;;;;;;;;;;;4970186;28;19979;-43
2023/10/24 16:58:03;;;;;;;;;;;;;;;;;;4970624;28;19975;-45
2023/10/24 17:00:29;;;;;;;;;;;;;;;;;;4969725;28;19914;-44
2023/10/24 17:02:55;;;;;;;;;;;;;;;;;;4969761;28;19914;-44
2023/10/24 17:05:21;;;;;;;;;;;;;;;;;;4969672;28;19910;-45
2023/10/24 17:07:47;;;;;;;;;;;;;;;;;;4969807;28;20004;-45
2023/10/24 17:10:13;;;;;;;;;;;;;;;;;;4969848;28;19910;-41
2023/10/24 17:12:39;;;;;;;;;;;;;;;;;;4969680;28;20413;-41
2023/10/24 17:15:05;;;;;;;;;;;;;;;;;;4970610;28;19910;-40
2023/10/24 17:17:30;;;;;;;;;;;;;;;;;;4969771;28;19949;-41
2023/10/24 17:19:56;;;;;;;;;;;;;;;;;;4969351;28;20457;-41
2023/10/24 17:22:27;;;;;;;;;;;;;;;;;;4969504;28;19918;-43
2023/10/24 17:24:53;;;;;;;;;;;;;;;;;;4969505;28;19972;-45
2023/10/24 17:27:19;;;;;;;;;;;;;;;;;;4969619;28;19945;-43
2023/10/24 17:29:45;;;;;;;;;;;;;;;;;;4969168;28;20402;-44
2023/10/24 17:32:10;;;;;;;;;;;;;;;;;;4969287;28;19918;-48
2023/10/24 17:34:36;;;;;;;;;;;;;;;;;;4969585;28;19949;-44
2023/10/24 17:37:02;;;;;;;;;;;;;;;;;;4970017;28;19906;-45
2023/10/24 17:39:29;;;;;;;;;;;;;;;;;;4969062;28;19911;-44
2023/10/24 17:41:55;;;;;;;;;;;;;;;;;;4969255;28;20502;-46
2023/10/24 17:44:21;;;;;;;;;;;;;;;;;;4969102;28;19969;-43
2023/10/24 17:46:47;;;;;;;;;;;;;;;;;;4969299;28;19969;-42
2023/10/24 17:49:13;;;;;;;;;;;;;;;;;;4969006;28;19910;-41
2023/10/24 17:51:40;;;;;;;;;;;;;;;;;;4968992;28;20445;-42
2023/10/24 17:54:06;;;;;;;;;;;;;;;;;;4969553;28;19910;-44
2023/10/24 17:56:32;;;;;;;;;;;;;;;;;;4968498;28;19952;-45
2023/10/24 17:58:58;;;;;;;;;;;;;;;;;;4968916;28;19958;-44
2023/10/24 18:01:24;;;;;;;;;;;;;;;;;;4969208;28;19933;-44
2023/10/24 18:03:52;;;;;;;;;;;;;;;;;;4968289;28;21260;-44
2023/10/24 18:06:18;;;;;;;;;;;;;;;;;;4968916;28;19914;-45
2023/10/24 18:08:45;;;;;;;;;;;;;;;;;;4968910;28;19934;-45
2023/10/24 18:11:11;;;;;;;;;;;;;;;;;;4968871;28;19960;-45
2023/10/24 18:13:37;;;;;;;;;;;;;;;;;;4969449;28;19949;-45
2023/10/24 18:16:03;;;;;;;;;;;;;;;;;;4968689;28;19937;-47
2023/10/24 18:18:29;;;;;;;;;;;;;;;;;;4968586;28;19914;-45
2023/10/24 18:20:54;;;;;;;;;;;;;;;;;;4968636;28;20245;-46
2023/10/24 18:23:20;;;;;;;;;;;;;;;;;;4968974;28;19918;-44
2023/10/24 18:25:46;;;;;;;;;;;;;;;;;;4968736;28;20394;-44
2023/10/24 18:28:12;;;;;;;;;;;;;;;;;;4968619;28;19906;-42
2023/10/24 18:30:38;;;;;;;;;;;;;;;;;;4969148;28;19997;-42
2023/10/24 18:33:04;;;;;;;;;;;;;;;;;;4968936;28;19920;-43
2023/10/24 18:35:30;;;;;;;;;;;;;;;;;;4968526;28;19976;-43
2023/10/24 18:37:56;;;;;;;;;;;;;;;;;;4972084;28;20406;-42
2023/10/24 18:40:22;;;;;;;;;;;;;;;;;;4972495;28;19910;-42
2023/10/24 18:42:54;;;;;;;;;;;;;;;;;;4972553;28;19910;-42
2023/10/24 18:45:23;;;;;;;;;;;;;;;;;;4972531;28;19936;-43
2023/10/24 18:47:49;;;;;;;;;;;;;;;;;;4972796;28;19914;-43
2023/10/24 18:50:15;;;;;;;;;;;;;;;;;;4971905;28;20051;-43
2023/10/24 18:52:41;;;;;;;;;;;;;;;;;;4972367;28;19914;-42
2023/10/24 18:55:07;;;;;;;;;;;;;;;;;;4972905;28;20366;-42
2023/10/24 18:57:33;;;;;;;;;;;;;;;;;;4972221;28;19914;-43
2023/10/24 18:59:59;;;;;;;;;;;;;;;;;;4971945;28;19922;-41
2023/10/24 19:02:25;;;;;;;;;;;;;;;;;;4972148;28;20505;-42
2023/10/24 19:04:51;;;;;;;;;;;;;;;;;;4971925;28;19956;-43
2023/10/24 19:07:18;;;;;;;;;;;;;;;;;;4972260;28;19918;-42
2023/10/24 19:09:44;;;;;;;;;;;;;;;;;;4972082;28;19917;-43
2023/10/24 19:12:10;;;;;;;;;;;;;;;;;;4972695;28;19922;-42
2023/10/24 19:14:36;;;;;;;;;;;;;;;;;;4972169;28;19910;-41
2023/10/24 19:17:02;;;;;;;;;;;;;;;;;;4971725;28;19944;-42
2023/10/24 19:19:28;;;;;;;;;;;;;;;;;;4971720;28;19922;-42
2023/10/24 19:21:53;;;;;;;;;;;;;;;;;;4971951;28;19922;-42
2023/10/24 19:24:19;;;;;;;;;;;;;;;;;;4971708;28;20373;-43
2023/10/24 19:26:46;;;;;;;;;;;;;;;;;;4971659;28;19989;-43
2023/10/24 19:29:12;;;;;;;;;;;;;;;;;;4972389;28;20405;-46
2023/10/24 19:31:38;;;;;;;;;;;;;;;;;;4971985;28;19910;-44
2023/10/24 19:34:03;;;;;;;;;;;;;;;;;;4971524;28;19962;-44
2023/10/24 19:36:29;;;;;;;;;;;;;;;;;;4971472;28;19914;-44
2023/10/24 19:38:55;;;;;;;;;;;;;;;;;;4974140;28;19967;-44
2023/10/24 19:41:21;;;;;;;;;;;;;;;;;;4970819;28;19925;-43
2023/10/24 19:43:47;;;;;;;;;;;;;;;;;;4969819;28;19961;-44
2023/10/24 19:46:13;;;;;;;;;;;;;;;;;;4971669;28;19964;-44
2023/10/24 19:48:39;;;;;;;;;;;;;;;;;;4985501;28;19940;-43
2023/10/24 19:51:05;;;;;;;;;;;;;;;;;;4983806;28;19945;-42
2023/10/24 19:53:31;;;;;;;;;;;;;;;;;;4972069;28;19925;-43
2023/10/24 19:55:57;;;;;;;;;;;;;;;;;;4970401;28;19922;-43
2023/10/24 19:58:25;;;;;;;;;;;;;;;;;;4970299;28;20204;-45
2023/10/24 20:00:51;;;;;;;;;;;;;;;;;;4972749;28;19918;-43
2023/10/24 20:03:17;;;;;;;;;;;;;;;;;;4968541;28;20290;-45
2023/10/24 20:05:43;;;;;;;;;;;;;;;;;;4968552;28;19914;-43
2023/10/24 20:08:09;;;;;;;;;;;;;;;;;;4967855;28;20017;-43
2023/10/24 20:10:35;;;;;;;;;;;;;;;;;;4969661;28;20005;-44
2023/10/24 20:13:01;;;;;;;;;;;;;;;;;;4968137;28;19918;-44
2023/10/24 20:15:27;;;;;;;;;;;;;;;;;;4972176;28;19961;-45
2023/10/24 20:17:53;;;;;;;;;;;;;;;;;;4968247;28;19921;-44
2023/10/24 20:20:19;;;;;;;;;;;;;;;;;;4950819;28;20409;-46
2023/10/24 20:22:45;;;;;;;;;;;;;;;;;;4968512;28;20013;-45
2023/10/24 20:25:11;;;;;;;;;;;;;;;;;;4967960;28;20201;-44
2023/10/24 20:27:37;;;;;;;;;;;;;;;;;;4965247;28;19941;-43
2023/10/24 20:30:04;;;;;;;;;;;;;;;;;;4976087;28;19914;-44
2023/10/24 20:32:31;;;;;;;;;;;;;;;;;;4982545;28;20004;-43
2023/10/24 20:34:57;;;;;;;;;;;;;;;;;;4978770;28;19922;-44
2023/10/24 20:37:24;;;;;;;;;;;;;;;;;;4976780;28;19914;-44
2023/10/24 20:39:50;;;;;;;;;;;;;;;;;;4967114;28;19918;-47
2023/10/24 20:42:19;;;;;;;;;;;;;;;;;;4951950;28;20294;-44
2023/10/24 20:44:45;;;;;;;;;;;;;;;;;;4969142;28;20260;-44
2023/10/24 20:47:11;;;;;;;;;;;;;;;;;;4967952;28;19926;-43
2023/10/24 20:49:38;;;;;;;;;;;;;;;;;;4951272;28;19958;-43
2023/10/24 20:52:04;;;;;;;;;;;;;;;;;;4966406;28;19914;-43
2023/10/24 20:54:30;;;;;;;;;;;;;;;;;;4971424;28;19915;-45
2023/10/24 20:56:56;;;;;;;;;;;;;;;;;;4967429;28;19921;-47
2023/10/24 20:59:23;;;;;;;;;;;;;;;;;;4971888;28;19914;-42
2023/10/24 21:01:49;;;;;;;;;;;;;;;;;;4965709;28;19952;-45
2023/10/24 21:04:15;;;;;;;;;;;;;;;;;;4964725;28;21242;-48
2023/10/24 21:06:41;;;;;;;;;;;;;;;;;;4961867;28;20013;-44
2023/10/24 21:09:08;;;;;;;;;;;;;;;;;;4964461;28;19941;-46
2023/10/24 21:11:33;;;;;;;;;;;;;;;;;;4967773;28;19934;-46
2023/10/24 21:14:02;;;;;;;;;;;;;;;;;;4964737;28;20728;-47
2023/10/24 21:16:28;;;;;;;;;;;;;;;;;;4949027;28;20452;-45
2023/10/24 21:18:54;;;;;;;;;;;;;;;;;;4967364;28;20000;-46
2023/10/24 21:21:19;;;;;;;;;;;;;;;;;;4962510;28;20219;-46
2023/10/24 21:23:45;;;;;;;;;;;;;;;;;;4970543;28;20042;-44
2023/10/24 21:26:11;;;;;;;;;;;;;;;;;;4972996;28;20358;-47
2023/10/24 21:28:40;;;;;;;;;;;;;;;;;;4973540;28;19925;-48
2023/10/24 21:31:07;;;;;;;;;;;;;;;;;;4965823;28;19921;-44
2023/10/24 21:33:32;;;;;;;;;;;;;;;;;;4964309;28;19925;-45
2023/10/24 21:35:59;;;;;;;;;;;;;;;;;;4948967;28;19914;-47
2023/10/24 21:38:25;;;;;;;;;;;;;;;;;;4966004;28;20018;-44
2023/10/24 21:40:54;;;;;;;;;;;;;;;;;;4949479;28;20005;-44
2023/10/24 21:43:20;;;;;;;;;;;;;;;;;;4948667;28;19914;-47
2023/10/24 21:45:46;;;;;;;;;;;;;;;;;;4967760;28;20025;-44
2023/10/24 21:48:12;;;;;;;;;;;;;;;;;;4964253;28;19969;-46
2023/10/24 21:50:38;;;;;;;;;;;;;;;;;;4964650;28;20315;-45
2023/10/24 21:53:04;;;;;;;;;;;;;;;;;;4965240;28;19918;-44
2023/10/24 21:55:30;;;;;;;;;;;;;;;;;;4965883;28;19914;-45
2023/10/24 21:57:55;;;;;;;;;;;;;;;;;;4965751;28;19949;-44